sensor_id;sensor_type;location;lat;lon;timestamp;P1;durP1;ratioP1;P2;durP2;ratioP2
41077;SDS011;26823;42.662;23.352;2022-09-17T00:00:17;8.18;;;3.75;;
41077;SDS011;26823;42.662;23.352;2022-09-17T00:02:43;8.38;;;4.43;;
41077;SDS011;26823;42.662;23.352;2022-09-17T00:05:11;10.15;;;4.25;;
41077;SDS011;26823;42.662;23.352;2022-09-17T00:07:37;8.50;;;4.32;;
41077;SDS011;26823;42.662;23.352;2022-09-17T00:10:02;8.80;;;5.07;;
41077;SDS011;26823;42.662;23.352;2022-09-17T00:12:29;10.07;;;5.38;;
41077;SDS011;26823;42.662;23.352;2022-09-17T00:14:56;8.10;;;4.70;;
41077;SDS011;26823;42.662;23.352;2022-09-17T00:17:21;8.25;;;3.95;;
41077;SDS011;26823;42.662;23.352;2022-09-17T00:19:47;7.50;;;4.15;;
41077;SDS011;26823;42.662;23.352;2022-09-17T00:22:13;8.32;;;4.10;;
41077;SDS011;26823;42.662;23.352;2022-09-17T00:24:39;8.30;;;4.88;;
41077;SDS011;26823;42.662;23.352;2022-09-17T00:27:05;8.45;;;5.38;;
41077;SDS011;26823;42.662;23.352;2022-09-17T00:29:30;6.88;;;4.38;;
41077;SDS011;26823;42.662;23.352;2022-09-17T00:31:55;5.65;;;3.97;;
41077;SDS011;26823;42.662;23.352;2022-09-17T00:34:21;7.70;;;4.25;;
41077;SDS011;26823;42.662;23.352;2022-09-17T00:36:46;5.35;;;4.15;;
41077;SDS011;26823;42.662;23.352;2022-09-17T00:39:12;6.32;;;4.35;;
41077;SDS011;26823;42.662;23.352;2022-09-17T00:41:40;5.10;;;3.72;;
41077;SDS011;26823;42.662;23.352;2022-09-17T00:47:27;6.80;;;4.40;;
41077;SDS011;26823;42.662;23.352;2022-09-17T00:50:00;6.47;;;4.70;;
41077;SDS011;26823;42.662;23.352;2022-09-17T00:52:30;6.38;;;3.85;;
41077;SDS011;26823;42.662;23.352;2022-09-17T00:55:18;5.78;;;4.15;;
41077;SDS011;26823;42.662;23.352;2022-09-17T00:57:58;4.15;;;3.75;;
41077;SDS011;26823;42.662;23.352;2022-09-17T01:00:27;8.75;;;4.35;;
41077;SDS011;26823;42.662;23.352;2022-09-17T01:02:53;8.65;;;4.05;;
41077;SDS011;26823;42.662;23.352;2022-09-17T01:05:27;6.93;;;4.38;;
41077;SDS011;26823;42.662;23.352;2022-09-17T01:08:03;6.03;;;4.78;;
41077;SDS011;26823;42.662;23.352;2022-09-17T01:13:17;8.52;;;4.60;;
41077;SDS011;26823;42.662;23.352;2022-09-17T01:15:54;5.55;;;4.28;;
41077;SDS011;26823;42.662;23.352;2022-09-17T01:21:31;7.25;;;3.75;;
41077;SDS011;26823;42.662;23.352;2022-09-17T01:35:10;6.90;;;3.53;;
41077;SDS011;26823;42.662;23.352;2022-09-17T01:45:56;7.13;;;4.18;;
41077;SDS011;26823;42.662;23.352;2022-09-17T01:48:35;9.05;;;4.00;;
41077;SDS011;26823;42.662;23.352;2022-09-17T01:51:07;8.95;;;4.57;;
41077;SDS011;26823;42.662;23.352;2022-09-17T01:54:18;8.38;;;4.80;;
41077;SDS011;26823;42.662;23.352;2022-09-17T01:56:37;5.05;;;3.75;;
41077;SDS011;26823;42.662;23.352;2022-09-17T01:59:11;4.72;;;3.10;;
41077;SDS011;26823;42.662;23.352;2022-09-17T02:01:40;6.70;;;3.72;;
41077;SDS011;26823;42.662;23.352;2022-09-17T02:04:10;4.80;;;3.58;;
41077;SDS011;26823;42.662;23.352;2022-09-17T02:06:42;7.07;;;4.45;;
41077;SDS011;26823;42.662;23.352;2022-09-17T02:09:55;7.78;;;4.03;;
41077;SDS011;26823;42.662;23.352;2022-09-17T02:12:02;5.78;;;4.05;;
41077;SDS011;26823;42.662;23.352;2022-09-17T02:14:36;4.40;;;3.38;;
41077;SDS011;26823;42.662;23.352;2022-09-17T02:17:09;7.28;;;3.95;;
41077;SDS011;26823;42.662;23.352;2022-09-17T02:19:43;4.63;;;3.55;;
41077;SDS011;26823;42.662;23.352;2022-09-17T02:22:24;5.70;;;4.15;;
41077;SDS011;26823;42.662;23.352;2022-09-17T02:30:11;4.53;;;3.10;;
41077;SDS011;26823;42.662;23.352;2022-09-17T02:32:37;4.25;;;2.58;;
41077;SDS011;26823;42.662;23.352;2022-09-17T02:35:03;6.05;;;3.08;;
41077;SDS011;26823;42.662;23.352;2022-09-17T02:37:30;7.75;;;3.00;;
41077;SDS011;26823;42.662;23.352;2022-09-17T02:39:56;4.72;;;2.83;;
41077;SDS011;26823;42.662;23.352;2022-09-17T02:42:31;3.08;;;2.80;;
41077;SDS011;26823;42.662;23.352;2022-09-17T02:45:25;4.80;;;2.95;;
41077;SDS011;26823;42.662;23.352;2022-09-17T02:48:08;5.18;;;3.28;;
41077;SDS011;26823;42.662;23.352;2022-09-17T03:01:32;6.53;;;3.00;;
41077;SDS011;26823;42.662;23.352;2022-09-17T03:04:03;5.00;;;2.97;;
41077;SDS011;26823;42.662;23.352;2022-09-17T03:06:32;5.90;;;2.97;;
41077;SDS011;26823;42.662;23.352;2022-09-17T03:08:57;5.70;;;2.78;;
41077;SDS011;26823;42.662;23.352;2022-09-17T03:11:23;4.38;;;2.42;;
41077;SDS011;26823;42.662;23.352;2022-09-17T03:13:49;3.53;;;2.80;;
41077;SDS011;26823;42.662;23.352;2022-09-17T03:16:14;3.00;;;2.70;;
41077;SDS011;26823;42.662;23.352;2022-09-17T03:18:39;3.25;;;2.70;;
41077;SDS011;26823;42.662;23.352;2022-09-17T03:21:05;4.80;;;2.97;;
41077;SDS011;26823;42.662;23.352;2022-09-17T03:23:30;5.03;;;3.13;;
41077;SDS011;26823;42.662;23.352;2022-09-17T03:25:57;4.82;;;2.60;;
41077;SDS011;26823;42.662;23.352;2022-09-17T03:28:23;2.83;;;2.53;;
41077;SDS011;26823;42.662;23.352;2022-09-17T03:30:50;4.97;;;3.17;;
41077;SDS011;26823;42.662;23.352;2022-09-17T03:33:16;4.07;;;2.70;;
41077;SDS011;26823;42.662;23.352;2022-09-17T03:35:42;3.30;;;2.95;;
41077;SDS011;26823;42.662;23.352;2022-09-17T03:38:09;3.10;;;2.80;;
41077;SDS011;26823;42.662;23.352;2022-09-17T03:40:34;4.55;;;2.90;;
41077;SDS011;26823;42.662;23.352;2022-09-17T03:43:00;3.58;;;2.88;;
41077;SDS011;26823;42.662;23.352;2022-09-17T03:45:25;7.28;;;3.08;;
41077;SDS011;26823;42.662;23.352;2022-09-17T03:47:50;4.75;;;3.00;;
41077;SDS011;26823;42.662;23.352;2022-09-17T03:50:16;2.92;;;2.63;;
41077;SDS011;26823;42.662;23.352;2022-09-17T03:52:42;4.35;;;2.95;;
41077;SDS011;26823;42.662;23.352;2022-09-17T03:55:07;6.63;;;2.97;;
41077;SDS011;26823;42.662;23.352;2022-09-17T03:57:33;5.10;;;3.85;;
41077;SDS011;26823;42.662;23.352;2022-09-17T03:59:58;3.42;;;3.10;;
41077;SDS011;26823;42.662;23.352;2022-09-17T04:02:24;3.05;;;2.80;;
41077;SDS011;26823;42.662;23.352;2022-09-17T04:04:49;4.38;;;2.70;;
41077;SDS011;26823;42.662;23.352;2022-09-17T04:07:17;5.10;;;2.70;;
41077;SDS011;26823;42.662;23.352;2022-09-17T04:09:42;4.35;;;2.47;;
41077;SDS011;26823;42.662;23.352;2022-09-17T04:12:07;4.07;;;3.15;;
41077;SDS011;26823;42.662;23.352;2022-09-17T04:14:33;3.83;;;3.03;;
41077;SDS011;26823;42.662;23.352;2022-09-17T04:16:58;5.30;;;2.92;;
41077;SDS011;26823;42.662;23.352;2022-09-17T04:19:23;5.80;;;2.55;;
41077;SDS011;26823;42.662;23.352;2022-09-17T04:21:49;3.97;;;2.63;;
41077;SDS011;26823;42.662;23.352;2022-09-17T04:24:14;2.85;;;2.45;;
41077;SDS011;26823;42.662;23.352;2022-09-17T04:26:40;4.55;;;2.88;;
41077;SDS011;26823;42.662;23.352;2022-09-17T04:29:05;5.40;;;2.30;;
41077;SDS011;26823;42.662;23.352;2022-09-17T04:31:31;4.95;;;1.85;;
41077;SDS011;26823;42.662;23.352;2022-09-17T04:33:56;4.72;;;2.60;;
41077;SDS011;26823;42.662;23.352;2022-09-17T04:36:21;2.97;;;2.50;;
41077;SDS011;26823;42.662;23.352;2022-09-17T04:38:47;5.55;;;2.55;;
41077;SDS011;26823;42.662;23.352;2022-09-17T04:41:13;2.72;;;2.08;;
41077;SDS011;26823;42.662;23.352;2022-09-17T04:43:38;4.43;;;2.88;;
41077;SDS011;26823;42.662;23.352;2022-09-17T04:46:04;11.00;;;3.10;;
41077;SDS011;26823;42.662;23.352;2022-09-17T04:48:38;7.47;;;3.10;;
41077;SDS011;26823;42.662;23.352;2022-09-17T04:51:03;5.93;;;2.75;;
41077;SDS011;26823;42.662;23.352;2022-09-17T04:53:29;3.67;;;3.10;;
41077;SDS011;26823;42.662;23.352;2022-09-17T04:55:54;4.75;;;3.53;;
41077;SDS011;26823;42.662;23.352;2022-09-17T04:58:20;7.40;;;3.67;;
41077;SDS011;26823;42.662;23.352;2022-09-17T05:00:45;8.20;;;3.78;;
41077;SDS011;26823;42.662;23.352;2022-09-17T05:03:10;8.52;;;4.15;;
41077;SDS011;26823;42.662;23.352;2022-09-17T05:05:36;7.00;;;3.78;;
41077;SDS011;26823;42.662;23.352;2022-09-17T05:08:01;6.85;;;5.05;;
41077;SDS011;26823;42.662;23.352;2022-09-17T05:10:27;10.95;;;4.57;;
41077;SDS011;26823;42.662;23.352;2022-09-17T05:12:53;7.18;;;4.20;;
41077;SDS011;26823;42.662;23.352;2022-09-17T05:15:20;6.53;;;4.13;;
41077;SDS011;26823;42.662;23.352;2022-09-17T05:17:47;8.05;;;4.57;;
41077;SDS011;26823;42.662;23.352;2022-09-17T05:20:13;11.43;;;5.03;;
41077;SDS011;26823;42.662;23.352;2022-09-17T05:22:40;7.68;;;4.68;;
41077;SDS011;26823;42.662;23.352;2022-09-17T05:25:07;5.80;;;3.75;;
41077;SDS011;26823;42.662;23.352;2022-09-17T05:27:32;9.00;;;4.53;;
41077;SDS011;26823;42.662;23.352;2022-09-17T05:29:58;10.05;;;4.80;;
41077;SDS011;26823;42.662;23.352;2022-09-17T05:32:23;5.53;;;3.90;;
41077;SDS011;26823;42.662;23.352;2022-09-17T05:34:48;6.95;;;3.88;;
41077;SDS011;26823;42.662;23.352;2022-09-17T05:37:14;7.53;;;3.83;;
41077;SDS011;26823;42.662;23.352;2022-09-17T05:39:39;4.80;;;3.80;;
41077;SDS011;26823;42.662;23.352;2022-09-17T05:42:05;6.90;;;3.75;;
41077;SDS011;26823;42.662;23.352;2022-09-17T05:44:30;7.53;;;4.07;;
41077;SDS011;26823;42.662;23.352;2022-09-17T05:46:55;12.10;;;4.05;;
41077;SDS011;26823;42.662;23.352;2022-09-17T05:49:21;7.50;;;3.85;;
41077;SDS011;26823;42.662;23.352;2022-09-17T05:51:48;5.97;;;3.65;;
41077;SDS011;26823;42.662;23.352;2022-09-17T05:54:14;9.73;;;4.80;;
41077;SDS011;26823;42.662;23.352;2022-09-17T05:56:39;9.50;;;4.10;;
41077;SDS011;26823;42.662;23.352;2022-09-17T05:59:05;6.93;;;4.18;;
41077;SDS011;26823;42.662;23.352;2022-09-17T06:01:30;8.48;;;4.22;;
41077;SDS011;26823;42.662;23.352;2022-09-17T06:03:55;7.55;;;4.50;;
41077;SDS011;26823;42.662;23.352;2022-09-17T06:06:21;7.35;;;4.60;;
41077;SDS011;26823;42.662;23.352;2022-09-17T06:08:46;7.57;;;4.47;;
41077;SDS011;26823;42.662;23.352;2022-09-17T06:11:12;11.82;;;4.80;;
41077;SDS011;26823;42.662;23.352;2022-09-17T06:13:37;8.68;;;4.80;;
41077;SDS011;26823;42.662;23.352;2022-09-17T06:16:03;10.07;;;4.60;;
41077;SDS011;26823;42.662;23.352;2022-09-17T06:18:29;11.73;;;5.70;;
41077;SDS011;26823;42.662;23.352;2022-09-17T06:20:59;13.20;;;5.80;;
41077;SDS011;26823;42.662;23.352;2022-09-17T06:23:26;11.55;;;5.65;;
41077;SDS011;26823;42.662;23.352;2022-09-17T06:25:53;6.72;;;4.43;;
41077;SDS011;26823;42.662;23.352;2022-09-17T06:28:20;10.50;;;5.95;;
41077;SDS011;26823;42.662;23.352;2022-09-17T06:30:45;12.63;;;5.35;;
41077;SDS011;26823;42.662;23.352;2022-09-17T06:33:12;10.02;;;5.10;;
41077;SDS011;26823;42.662;23.352;2022-09-17T06:35:37;6.63;;;4.20;;
41077;SDS011;26823;42.662;23.352;2022-09-17T06:38:03;7.70;;;4.10;;
41077;SDS011;26823;42.662;23.352;2022-09-17T06:40:29;8.23;;;4.20;;
41077;SDS011;26823;42.662;23.352;2022-09-17T06:42:58;10.45;;;4.22;;
41077;SDS011;26823;42.662;23.352;2022-09-17T06:45:24;5.40;;;4.13;;
41077;SDS011;26823;42.662;23.352;2022-09-17T06:47:50;5.40;;;4.03;;
41077;SDS011;26823;42.662;23.352;2022-09-17T06:50:16;9.45;;;4.22;;
41077;SDS011;26823;42.662;23.352;2022-09-17T06:52:48;8.82;;;3.92;;
41077;SDS011;26823;42.662;23.352;2022-09-17T06:55:14;7.65;;;4.03;;
41077;SDS011;26823;42.662;23.352;2022-09-17T06:57:40;9.77;;;4.05;;
41077;SDS011;26823;42.662;23.352;2022-09-17T07:00:06;7.95;;;3.78;;
41077;SDS011;26823;42.662;23.352;2022-09-17T07:02:32;7.32;;;3.70;;
41077;SDS011;26823;42.662;23.352;2022-09-17T07:04:57;5.35;;;3.70;;
41077;SDS011;26823;42.662;23.352;2022-09-17T07:07:23;6.70;;;4.20;;
41077;SDS011;26823;42.662;23.352;2022-09-17T07:09:48;6.63;;;3.92;;
41077;SDS011;26823;42.662;23.352;2022-09-17T07:12:14;9.98;;;3.90;;
41077;SDS011;26823;42.662;23.352;2022-09-17T07:14:39;8.35;;;4.60;;
41077;SDS011;26823;42.662;23.352;2022-09-17T07:17:04;5.45;;;3.55;;
41077;SDS011;26823;42.662;23.352;2022-09-17T07:19:31;7.93;;;4.20;;
41077;SDS011;26823;42.662;23.352;2022-09-17T07:21:56;6.57;;;4.18;;
41077;SDS011;26823;42.662;23.352;2022-09-17T07:24:22;8.38;;;4.32;;
41077;SDS011;26823;42.662;23.352;2022-09-17T07:26:48;6.13;;;4.25;;
41077;SDS011;26823;42.662;23.352;2022-09-17T07:29:14;5.88;;;4.10;;
41077;SDS011;26823;42.662;23.352;2022-09-17T07:31:40;8.10;;;3.85;;
41077;SDS011;26823;42.662;23.352;2022-09-17T07:34:05;7.53;;;3.70;;
41077;SDS011;26823;42.662;23.352;2022-09-17T07:36:31;8.73;;;3.28;;
41077;SDS011;26823;42.662;23.352;2022-09-17T07:38:56;4.82;;;2.95;;
41077;SDS011;26823;42.662;23.352;2022-09-17T07:41:22;4.45;;;2.88;;
41077;SDS011;26823;42.662;23.352;2022-09-17T07:43:47;5.50;;;3.00;;
41077;SDS011;26823;42.662;23.352;2022-09-17T07:46:16;5.05;;;3.00;;
41077;SDS011;26823;42.662;23.352;2022-09-17T07:48:43;4.00;;;3.03;;
41077;SDS011;26823;42.662;23.352;2022-09-17T07:51:20;8.30;;;3.05;;
41077;SDS011;26823;42.662;23.352;2022-09-17T07:53:49;5.47;;;3.20;;
41077;SDS011;26823;42.662;23.352;2022-09-17T07:56:22;8.23;;;3.63;;
41077;SDS011;26823;42.662;23.352;2022-09-17T07:58:48;5.57;;;3.25;;
41077;SDS011;26823;42.662;23.352;2022-09-17T08:01:14;9.88;;;3.45;;
41077;SDS011;26823;42.662;23.352;2022-09-17T08:03:41;4.82;;;3.08;;
41077;SDS011;26823;42.662;23.352;2022-09-17T08:06:09;6.25;;;2.90;;
41077;SDS011;26823;42.662;23.352;2022-09-17T08:08:36;6.57;;;3.20;;
41077;SDS011;26823;42.662;23.352;2022-09-17T08:11:04;8.75;;;3.75;;
41077;SDS011;26823;42.662;23.352;2022-09-17T08:13:34;5.53;;;3.00;;
41077;SDS011;26823;42.662;23.352;2022-09-17T08:16:01;7.47;;;2.85;;
41077;SDS011;26823;42.662;23.352;2022-09-17T08:18:31;6.32;;;2.70;;
41077;SDS011;26823;42.662;23.352;2022-09-17T08:20:58;6.78;;;3.25;;
41077;SDS011;26823;42.662;23.352;2022-09-17T08:23:27;5.55;;;2.40;;
41077;SDS011;26823;42.662;23.352;2022-09-17T08:25:57;5.50;;;2.35;;
41077;SDS011;26823;42.662;23.352;2022-09-17T08:28:24;4.35;;;2.40;;
41077;SDS011;26823;42.662;23.352;2022-09-17T08:30:50;5.03;;;2.40;;
41077;SDS011;26823;42.662;23.352;2022-09-17T08:33:17;4.97;;;2.35;;
41077;SDS011;26823;42.662;23.352;2022-09-17T08:35:52;6.63;;;2.58;;
41077;SDS011;26823;42.662;23.352;2022-09-17T08:38:19;3.55;;;1.75;;
41077;SDS011;26823;42.662;23.352;2022-09-17T08:46:13;2.00;;;1.80;;
41077;SDS011;26823;42.662;23.352;2022-09-17T08:48:43;2.05;;;1.70;;
41077;SDS011;26823;42.662;23.352;2022-09-17T08:54:00;2.85;;;1.63;;
41077;SDS011;26823;42.662;23.352;2022-09-17T08:56:38;3.53;;;2.40;;
41077;SDS011;26823;42.662;23.352;2022-09-17T08:59:21;2.95;;;1.50;;
41077;SDS011;26823;42.662;23.352;2022-09-17T09:02:03;3.13;;;1.48;;
41077;SDS011;26823;42.662;23.352;2022-09-17T09:04:57;2.35;;;1.33;;
41077;SDS011;26823;42.662;23.352;2022-09-17T09:07:46;2.92;;;1.75;;
41077;SDS011;26823;42.662;23.352;2022-09-17T09:10:19;3.08;;;1.90;;
41077;SDS011;26823;42.662;23.352;2022-09-17T09:12:49;4.40;;;2.40;;
41077;SDS011;26823;42.662;23.352;2022-09-17T09:15:18;4.45;;;1.75;;
41077;SDS011;26823;42.662;23.352;2022-09-17T09:17:52;5.25;;;1.92;;
41077;SDS011;26823;42.662;23.352;2022-09-17T09:20:20;8.45;;;3.45;;
41077;SDS011;26823;42.662;23.352;2022-09-17T09:22:56;5.68;;;2.33;;
41077;SDS011;26823;42.662;23.352;2022-09-17T09:25:24;1.88;;;1.77;;
41077;SDS011;26823;42.662;23.352;2022-09-17T09:33:22;3.53;;;1.95;;
41077;SDS011;26823;42.662;23.352;2022-09-17T09:35:52;3.47;;;2.40;;
41077;SDS011;26823;42.662;23.352;2022-09-17T09:41:04;4.32;;;2.47;;
41077;SDS011;26823;42.662;23.352;2022-09-17T09:43:44;3.10;;;2.22;;
41077;SDS011;26823;42.662;23.352;2022-09-17T09:49:07;6.28;;;3.20;;
41077;SDS011;26823;42.662;23.352;2022-09-17T09:55:27;7.22;;;2.72;;
41077;SDS011;26823;42.662;23.352;2022-09-17T10:00:22;6.40;;;2.80;;
41077;SDS011;26823;42.662;23.352;2022-09-17T10:03:03;7.20;;;3.22;;
41077;SDS011;26823;42.662;23.352;2022-09-17T10:05:30;8.10;;;3.03;;
41077;SDS011;26823;42.662;23.352;2022-09-17T10:07:56;5.47;;;2.90;;
41077;SDS011;26823;42.662;23.352;2022-09-17T10:10:22;7.40;;;2.75;;
41077;SDS011;26823;42.662;23.352;2022-09-17T10:12:48;5.90;;;3.30;;
41077;SDS011;26823;42.662;23.352;2022-09-17T10:15:24;6.18;;;3.92;;
41077;SDS011;26823;42.662;23.352;2022-09-17T10:20:58;8.13;;;3.60;;
41077;SDS011;26823;42.662;23.352;2022-09-17T10:23:28;5.28;;;3.47;;
41077;SDS011;26823;42.662;23.352;2022-09-17T10:25:58;6.80;;;3.17;;
41077;SDS011;26823;42.662;23.352;2022-09-17T10:28:31;4.15;;;2.70;;
41077;SDS011;26823;42.662;23.352;2022-09-17T10:31:03;3.72;;;2.67;;
41077;SDS011;26823;42.662;23.352;2022-09-17T10:33:34;4.95;;;3.38;;
41077;SDS011;26823;42.662;23.352;2022-09-17T10:39:28;4.85;;;3.60;;
41077;SDS011;26823;42.662;23.352;2022-09-17T10:44:30;5.63;;;3.15;;
41077;SDS011;26823;42.662;23.352;2022-09-17T10:47:02;4.05;;;3.50;;
41077;SDS011;26823;42.662;23.352;2022-09-17T10:52:07;6.65;;;3.95;;
41077;SDS011;26823;42.662;23.352;2022-09-17T11:00:21;5.97;;;2.90;;
41077;SDS011;26823;42.662;23.352;2022-09-17T11:03:05;3.97;;;2.53;;
41077;SDS011;26823;42.662;23.352;2022-09-17T11:11:28;3.65;;;1.98;;
41077;SDS011;26823;42.662;23.352;2022-09-17T11:14:19;4.07;;;2.47;;
41077;SDS011;26823;42.662;23.352;2022-09-17T11:25:45;5.78;;;3.78;;
41077;SDS011;26823;42.662;23.352;2022-09-17T11:34:29;3.78;;;2.03;;
41077;SDS011;26823;42.662;23.352;2022-09-17T11:37:11;3.58;;;2.50;;
41077;SDS011;26823;42.662;23.352;2022-09-17T11:40:24;4.47;;;2.33;;
41077;SDS011;26823;42.662;23.352;2022-09-17T11:45:13;5.05;;;2.50;;
41077;SDS011;26823;42.662;23.352;2022-09-17T11:47:55;3.72;;;2.70;;
41077;SDS011;26823;42.662;23.352;2022-09-17T11:50:30;3.17;;;2.88;;
41077;SDS011;26823;42.662;23.352;2022-09-17T11:55:41;4.00;;;2.63;;
41077;SDS011;26823;42.662;23.352;2022-09-17T11:58:25;4.00;;;2.80;;
41077;SDS011;26823;42.662;23.352;2022-09-17T12:01:00;5.65;;;3.40;;
41077;SDS011;26823;42.662;23.352;2022-09-17T12:03:34;4.65;;;2.30;;
41077;SDS011;26823;42.662;23.352;2022-09-17T12:06:07;2.97;;;2.30;;
41077;SDS011;26823;42.662;23.352;2022-09-17T12:08:41;3.33;;;2.80;;
41077;SDS011;26823;42.662;23.352;2022-09-17T12:13:49;3.03;;;2.50;;
41077;SDS011;26823;42.662;23.352;2022-09-17T12:16:22;3.45;;;2.20;;
41077;SDS011;26823;42.662;23.352;2022-09-17T12:18:50;3.60;;;2.63;;
41077;SDS011;26823;42.662;23.352;2022-09-17T12:21:24;3.28;;;2.20;;
41077;SDS011;26823;42.662;23.352;2022-09-17T12:24:05;6.38;;;2.45;;
41077;SDS011;26823;42.662;23.352;2022-09-17T12:41:23;4.70;;;2.30;;
41077;SDS011;26823;42.662;23.352;2022-09-17T13:01:01;3.22;;;2.50;;
41077;SDS011;26823;42.662;23.352;2022-09-17T13:17:31;3.88;;;3.05;;
41077;SDS011;26823;42.662;23.352;2022-09-17T13:20:19;4.57;;;2.72;;
41077;SDS011;26823;42.662;23.352;2022-09-17T13:22:57;4.13;;;2.42;;
41077;SDS011;26823;42.662;23.352;2022-09-17T13:25:23;3.30;;;2.70;;
41077;SDS011;26823;42.662;23.352;2022-09-17T13:28:02;3.42;;;2.10;;
41077;SDS011;26823;42.662;23.352;2022-09-17T13:38:59;2.35;;;1.75;;
41077;SDS011;26823;42.662;23.352;2022-09-17T13:41:26;2.55;;;1.45;;
41077;SDS011;26823;42.662;23.352;2022-09-17T13:43:54;4.78;;;1.30;;
41077;SDS011;26823;42.662;23.352;2022-09-17T13:46:21;2.10;;;1.10;;
41077;SDS011;26823;42.662;23.352;2022-09-17T13:48:50;0.98;;;0.90;;
41077;SDS011;26823;42.662;23.352;2022-09-17T13:53:53;1.08;;;1.08;;
41077;SDS011;26823;42.662;23.352;2022-09-17T13:56:43;3.22;;;1.48;;
41077;SDS011;26823;42.662;23.352;2022-09-17T14:02:00;1.20;;;1.10;;
41077;SDS011;26823;42.662;23.352;2022-09-17T14:06:59;3.10;;;1.83;;
41077;SDS011;26823;42.662;23.352;2022-09-17T14:18:00;5.00;;;1.63;;
41077;SDS011;26823;42.662;23.352;2022-09-17T14:20:28;2.90;;;1.50;;
41077;SDS011;26823;42.662;23.352;2022-09-17T14:22:57;3.53;;;1.63;;
41077;SDS011;26823;42.662;23.352;2022-09-17T14:25:34;1.88;;;1.35;;
41077;SDS011;26823;42.662;23.352;2022-09-17T14:28:17;1.88;;;1.20;;
41077;SDS011;26823;42.662;23.352;2022-09-17T14:30:47;2.63;;;1.20;;
41077;SDS011;26823;42.662;23.352;2022-09-17T14:33:14;1.58;;;1.40;;
41077;SDS011;26823;42.662;23.352;2022-09-17T14:40:41;2.95;;;1.88;;
41077;SDS011;26823;42.662;23.352;2022-09-17T14:43:16;1.77;;;1.40;;
41077;SDS011;26823;42.662;23.352;2022-09-17T14:45:51;3.90;;;1.75;;
41077;SDS011;26823;42.662;23.352;2022-09-17T14:48:30;6.35;;;1.90;;
41077;SDS011;26823;42.662;23.352;2022-09-17T14:51:43;1.80;;;1.70;;
41077;SDS011;26823;42.662;23.352;2022-09-17T14:53:47;2.00;;;1.80;;
41077;SDS011;26823;42.662;23.352;2022-09-17T14:56:30;6.32;;;1.70;;
41077;SDS011;26823;42.662;23.352;2022-09-17T14:58:58;2.65;;;1.60;;
41077;SDS011;26823;42.662;23.352;2022-09-17T15:01:26;4.78;;;3.05;;
41077;SDS011;26823;42.662;23.352;2022-09-17T15:07:07;5.88;;;2.03;;
41077;SDS011;26823;42.662;23.352;2022-09-17T15:09:33;2.05;;;1.83;;
41077;SDS011;26823;42.662;23.352;2022-09-17T15:11:59;1.88;;;1.45;;
41077;SDS011;26823;42.662;23.352;2022-09-17T15:14:29;5.18;;;1.25;;
41077;SDS011;26823;42.662;23.352;2022-09-17T15:16:57;2.10;;;1.85;;
41077;SDS011;26823;42.662;23.352;2022-09-17T15:19:34;2.60;;;1.50;;
41077;SDS011;26823;42.662;23.352;2022-09-17T15:27:31;2.13;;;1.42;;
41077;SDS011;26823;42.662;23.352;2022-09-17T15:30:13;2.80;;;1.73;;
41077;SDS011;26823;42.662;23.352;2022-09-17T15:35:29;2.92;;;1.65;;
41077;SDS011;26823;42.662;23.352;2022-09-17T15:37:57;2.15;;;1.63;;
41077;SDS011;26823;42.662;23.352;2022-09-17T15:40:38;2.42;;;1.67;;
41077;SDS011;26823;42.662;23.352;2022-09-17T15:45:47;2.80;;;1.77;;
41077;SDS011;26823;42.662;23.352;2022-09-17T15:50:51;5.60;;;2.45;;
41077;SDS011;26823;42.662;23.352;2022-09-17T15:53:31;4.35;;;2.17;;
41077;SDS011;26823;42.662;23.352;2022-09-17T15:58:27;6.80;;;2.42;;
41077;SDS011;26823;42.662;23.352;2022-09-17T16:08:52;2.78;;;2.17;;
41077;SDS011;26823;42.662;23.352;2022-09-17T16:11:22;4.90;;;2.15;;
41077;SDS011;26823;42.662;23.352;2022-09-17T16:13:55;2.80;;;2.00;;
41077;SDS011;26823;42.662;23.352;2022-09-17T16:16:30;4.20;;;2.42;;
41077;SDS011;26823;42.662;23.352;2022-09-17T16:18:58;5.60;;;2.28;;
41077;SDS011;26823;42.662;23.352;2022-09-17T16:21:23;3.78;;;2.40;;
41077;SDS011;26823;42.662;23.352;2022-09-17T16:23:49;4.93;;;2.10;;
41077;SDS011;26823;42.662;23.352;2022-09-17T16:26:16;5.28;;;1.98;;
41077;SDS011;26823;42.662;23.352;2022-09-17T16:28:44;4.22;;;2.58;;
41077;SDS011;26823;42.662;23.352;2022-09-17T16:31:13;4.72;;;3.20;;
41077;SDS011;26823;42.662;23.352;2022-09-17T16:33:39;6.55;;;3.17;;
41077;SDS011;26823;42.662;23.352;2022-09-17T16:36:05;4.18;;;2.35;;
41077;SDS011;26823;42.662;23.352;2022-09-17T16:38:31;2.03;;;1.58;;
41077;SDS011;26823;42.662;23.352;2022-09-17T16:40:56;3.67;;;2.00;;
41077;SDS011;26823;42.662;23.352;2022-09-17T16:43:22;2.47;;;2.00;;
41077;SDS011;26823;42.662;23.352;2022-09-17T16:45:57;4.68;;;2.28;;
41077;SDS011;26823;42.662;23.352;2022-09-17T16:48:24;4.63;;;1.83;;
41077;SDS011;26823;42.662;23.352;2022-09-17T16:50:49;4.18;;;2.45;;
41077;SDS011;26823;42.662;23.352;2022-09-17T16:53:14;3.03;;;2.08;;
41077;SDS011;26823;42.662;23.352;2022-09-17T16:55:40;5.63;;;3.22;;
41077;SDS011;26823;42.662;23.352;2022-09-17T16:58:05;2.78;;;2.15;;
41077;SDS011;26823;42.662;23.352;2022-09-17T17:00:30;5.43;;;3.35;;
41077;SDS011;26823;42.662;23.352;2022-09-17T17:02:56;3.22;;;2.50;;
41077;SDS011;26823;42.662;23.352;2022-09-17T17:05:23;6.63;;;3.00;;
41077;SDS011;26823;42.662;23.352;2022-09-17T17:07:50;3.97;;;2.92;;
41077;SDS011;26823;42.662;23.352;2022-09-17T17:10:16;4.43;;;2.28;;
41077;SDS011;26823;42.662;23.352;2022-09-17T17:12:42;3.50;;;2.55;;
41077;SDS011;26823;42.662;23.352;2022-09-17T17:15:08;2.55;;;2.20;;
41077;SDS011;26823;42.662;23.352;2022-09-17T17:17:34;2.63;;;2.17;;
41077;SDS011;26823;42.662;23.352;2022-09-17T17:20:08;7.10;;;4.18;;
41077;SDS011;26823;42.662;23.352;2022-09-17T17:22:35;3.78;;;2.72;;
41077;SDS011;26823;42.662;23.352;2022-09-17T17:25:02;7.18;;;2.67;;
41077;SDS011;26823;42.662;23.352;2022-09-17T17:27:29;3.90;;;2.63;;
41077;SDS011;26823;42.662;23.352;2022-09-17T17:29:54;4.50;;;2.70;;
41077;SDS011;26823;42.662;23.352;2022-09-17T17:32:20;5.90;;;2.40;;
41077;SDS011;26823;42.662;23.352;2022-09-17T17:34:45;3.95;;;2.55;;
41077;SDS011;26823;42.662;23.352;2022-09-17T17:37:11;5.60;;;2.63;;
41077;SDS011;26823;42.662;23.352;2022-09-17T17:39:38;5.43;;;2.70;;
41077;SDS011;26823;42.662;23.352;2022-09-17T17:42:04;3.63;;;2.60;;
41077;SDS011;26823;42.662;23.352;2022-09-17T17:44:29;2.80;;;2.20;;
41077;SDS011;26823;42.662;23.352;2022-09-17T17:46:55;8.77;;;3.15;;
41077;SDS011;26823;42.662;23.352;2022-09-17T17:49:20;3.60;;;2.35;;
41077;SDS011;26823;42.662;23.352;2022-09-17T17:51:46;2.20;;;2.00;;
41077;SDS011;26823;42.662;23.352;2022-09-17T17:54:12;2.90;;;2.40;;
41077;SDS011;26823;42.662;23.352;2022-09-17T17:56:37;4.57;;;2.40;;
41077;SDS011;26823;42.662;23.352;2022-09-17T17:59:03;4.25;;;2.45;;
41077;SDS011;26823;42.662;23.352;2022-09-17T18:01:29;6.05;;;3.25;;
41077;SDS011;26823;42.662;23.352;2022-09-17T18:03:56;4.97;;;2.65;;
41077;SDS011;26823;42.662;23.352;2022-09-17T18:06:23;2.40;;;2.20;;
41077;SDS011;26823;42.662;23.352;2022-09-17T18:08:52;4.68;;;2.40;;
41077;SDS011;26823;42.662;23.352;2022-09-17T18:11:17;6.30;;;2.35;;
41077;SDS011;26823;42.662;23.352;2022-09-17T18:13:44;4.30;;;2.20;;
41077;SDS011;26823;42.662;23.352;2022-09-17T18:16:11;3.72;;;2.45;;
41077;SDS011;26823;42.662;23.352;2022-09-17T18:18:38;3.58;;;2.40;;
41077;SDS011;26823;42.662;23.352;2022-09-17T18:21:06;3.65;;;2.35;;
41077;SDS011;26823;42.662;23.352;2022-09-17T18:23:34;6.07;;;2.22;;